Pays
Station

 

Conditions  météo  pour  Goose, Nfld.  -  Canada    Canada

  
3 °C
    
 
 

METAR pour Goose, Nfld. :

CYYR 212300Z 26003KT 15SM OVC035 03/M01 A2947 RMK SC8 SLP981

 

Voici le bulletin pour Goose, Nfld. - Canada.
 
Le bulletin a été fait il y a 38 minutes, à 23:00 UTC .
Le vent soufflait à la vitesse de 1.5 mètres par seconde de Ouest (260°).
 
La température était de 3 °C, avec un point de rosée à -1 °C.
La température ressentie était de 1 °C.
 
La pression atmosphérique était de 998 hPa.
L'humidité relative était de 74.9%.
 
Le ciel était nuageux à partir d'une hauteur de 1067 mètres
 
La visibilité globale était de 24.1 kilomètres.
 

 
 
 

Pays :   A   B   C   D   E   F   G   H   I   J   K   L   M   N   O   P   Q   R   S   T   U   V   W   Y   Z

 

Partenaires :  Info Météo avec Met'info
Météo Marine avec MeteoMarine.net
Infos Site  |  Infos Légales  |  Crédits  |  Confidentialité
Contactez-nous  |  Ajouter aux favoris
© 2013-2018 METAR - Tous droits réservés